createdAt,value
2023-02-19T00:02:46.528Z,2.00
2023-02-19T00:17:47.889Z,1.98
2023-02-19T00:32:49.224Z,2.33
2023-02-19T00:47:50.634Z,2.83
2023-02-19T01:02:52.000Z,1.60
2023-02-19T01:17:53.447Z,1.30
2023-02-19T01:32:54.862Z,1.38
2023-02-19T01:47:56.258Z,2.65
2023-02-19T02:02:57.602Z,2.90
2023-02-19T02:17:59.023Z,2.17
2023-02-19T02:33:00.389Z,2.20
2023-02-19T02:48:03.057Z,1.80
2023-02-19T03:03:04.581Z,1.55
2023-02-19T03:18:24.844Z,1.42
2023-02-19T03:33:26.262Z,1.10
2023-02-19T03:48:27.953Z,1.00
2023-02-19T04:03:29.448Z,2.28
2023-02-19T04:18:31.960Z,1.90
2023-02-19T04:33:33.316Z,2.40
2023-02-19T04:48:34.657Z,2.00
2023-02-19T05:03:36.107Z,1.90
2023-02-19T05:18:37.479Z,2.40
2023-02-19T05:33:38.845Z,1.88
2023-02-19T05:48:40.272Z,1.77
2023-02-19T06:03:41.731Z,2.35
2023-02-19T06:18:43.110Z,1.95
2023-02-19T06:33:44.507Z,2.22
2023-02-19T06:48:45.904Z,2.40
2023-02-19T07:03:47.413Z,2.00
2023-02-19T07:18:48.782Z,2.80
2023-02-19T07:33:50.126Z,2.92
2023-02-19T07:48:51.654Z,2.70
2023-02-19T08:03:53.012Z,2.78
2023-02-19T08:18:54.657Z,4.10
2023-02-19T08:33:55.992Z,2.75
2023-02-19T08:48:57.485Z,3.33
2023-02-19T09:03:59.002Z,2.83
2023-02-19T09:19:03.416Z,2.40
2023-02-19T09:34:04.833Z,3.17
2023-02-19T09:49:06.427Z,4.70
2023-02-19T10:04:07.810Z,5.88
2023-02-19T10:19:09.258Z,2.50
2023-02-19T10:34:10.859Z,3.78
2023-02-19T10:49:17.976Z,4.20
2023-02-19T11:04:20.273Z,2.45
2023-02-19T11:19:21.721Z,3.30
2023-02-19T11:34:29.117Z,4.07
2023-02-19T11:49:30.504Z,4.50
2023-02-19T12:04:35.728Z,3.63
2023-02-19T12:19:39.443Z,4.90
2023-02-19T12:34:40.819Z,3.15
2023-02-19T12:49:42.287Z,3.35
2023-02-19T13:04:44.289Z,4.78
2023-02-19T13:19:45.966Z,2.53
2023-02-19T13:34:47.924Z,3.05
2023-02-19T13:49:49.480Z,3.83
2023-02-19T14:04:51.758Z,4.57
2023-02-19T14:19:53.435Z,6.30
2023-02-19T14:34:54.841Z,4.10
2023-02-19T14:49:56.196Z,4.32
2023-02-19T15:04:57.660Z,4.47
2023-02-19T15:19:59.164Z,4.45
2023-02-19T15:35:00.554Z,8.13
2023-02-19T15:50:02.417Z,4.60
2023-02-19T16:05:03.849Z,2.70
2023-02-19T16:20:05.207Z,5.82
2023-02-19T16:35:06.579Z,6.22
2023-02-19T16:50:07.929Z,3.72
2023-02-19T17:05:09.298Z,7.13
2023-02-19T17:20:10.653Z,4.93
2023-02-19T17:35:12.039Z,4.07
2023-02-19T17:50:13.402Z,6.90
2023-02-19T18:05:14.785Z,10.15
2023-02-19T18:20:16.239Z,6.32
2023-02-19T18:35:17.684Z,9.23
2023-02-19T18:50:19.049Z,7.90
2023-02-19T19:05:22.822Z,6.75
2023-02-19T19:20:24.358Z,7.70
2023-02-19T19:35:28.432Z,8.38
2023-02-19T19:50:29.809Z,6.43
2023-02-19T20:05:31.187Z,12.95
2023-02-19T20:20:32.557Z,8.88
2023-02-19T20:35:33.987Z,11.05
2023-02-19T20:50:35.501Z,8.50
2023-02-19T21:05:37.099Z,7.80
2023-02-19T21:20:38.517Z,9.07
2023-02-19T21:35:39.927Z,9.95
2023-02-19T21:50:45.363Z,8.35
2023-02-19T22:05:46.737Z,8.40
2023-02-19T22:20:48.106Z,12.77
2023-02-19T22:35:49.445Z,11.85
2023-02-19T22:50:50.778Z,11.27
2023-02-19T23:05:52.138Z,10.00
2023-02-19T23:20:53.513Z,8.55
2023-02-19T23:35:54.859Z,9.20
2023-02-19T23:50:56.220Z,9.13
